Time;durP1;ratioP1;P1;durP2;ratioP2;P2;SDS_P1;SDS_P2;PMS_P1;PMS_P2;Temp;Humidity;BMP_temperature;BMP_pressure;BME280_temperature;BME280_humidity;BME280_pressure;Samples;Min_cycle;Max_cycle;Signal;HPM_P1;HPM_P2
2023/03/09 00:00:21;;;;;;;75.13;35.13;;;;;;;5.77;100.00;97773.88;4945166;29;20090;-87
2023/03/09 00:02:48;;;;;;;70.40;33.17;;;;;;;5.53;100.00;97718.63;4936705;29;20047;-87
2023/03/09 00:05:20;;;;;;;66.95;31.15;;;;;;;5.76;100.00;97761.69;4940996;28;20051;-88
2023/03/09 00:08:11;;;;;;;67.03;31.25;;;;;;;5.84;100.00;97775.09;4938528;29;20046;-88
2023/03/09 00:10:40;;;;;;;66.65;32.45;;;;;;;6.00;100.00;97783.63;4944156;29;20048;-87
2023/03/09 00:13:07;;;;;;;76.57;33.95;;;;;;;6.01;100.00;97773.97;4923425;29;20592;-87
2023/03/09 00:15:35;;;;;;;62.78;30.95;;;;;;;6.01;100.00;97761.66;4937842;29;20052;-87
2023/03/09 00:18:02;;;;;;;63.20;31.52;;;;;;;6.05;100.00;97757.88;4937106;29;20047;-86
2023/03/09 00:20:29;;;;;;;58.97;30.83;;;;;;;6.05;100.00;97762.31;4937797;29;20056;-88
2023/03/09 00:22:56;;;;;;;64.82;31.52;;;;;;;6.04;100.00;97758.84;4918275;29;20051;-89
2023/03/09 00:25:28;;;;;;;64.53;32.40;;;;;;;5.99;100.00;97748.63;4947935;28;20570;-84
2023/03/09 00:27:55;;;;;;;58.92;29.52;;;;;;;6.05;100.00;97752.63;4937648;29;20042;-86
2023/03/09 00:30:25;;;;;;;60.50;28.00;;;;;;;6.07;100.00;97755.16;4936301;29;20052;-85
2023/03/09 00:32:53;;;;;;;56.03;27.90;;;;;;;6.09;100.00;97748.00;4953699;28;20048;-86
2023/03/09 00:35:22;;;;;;;56.05;27.55;;;;;;;6.07;100.00;97752.53;4940361;29;20059;-88
2023/03/09 00:37:50;;;;;;;54.92;27.92;;;;;;;6.14;100.00;97759.84;4967383;28;20055;-83
2023/03/09 00:40:19;;;;;;;59.60;29.85;;;;;;;6.02;100.00;97738.88;4955373;28;20036;-85
2023/03/09 00:42:49;;;;;;;58.80;29.10;;;;;;;6.14;100.00;97751.97;4969246;28;20050;-85
2023/03/09 00:45:17;;;;;;;62.00;30.58;;;;;;;6.03;100.00;97737.91;4949214;29;20040;-84
2023/03/09 00:47:45;;;;;;;63.20;31.15;;;;;;;6.20;100.00;97761.22;4943226;29;20043;-84
2023/03/09 00:50:12;;;;;;;63.20;30.20;;;;;;;6.22;100.00;97754.91;4956135;29;20035;-84
2023/03/09 00:52:40;;;;;;;63.15;30.98;;;;;;;6.22;100.00;97747.03;4951128;29;20047;-86
2023/03/09 00:55:08;;;;;;;71.53;32.25;;;;;;;6.27;100.00;97754.59;4944478;29;20099;-86
2023/03/09 00:57:37;;;;;;;74.57;34.80;;;;;;;6.28;100.00;97754.47;4965585;28;20047;-87
2023/03/09 01:00:29;;;;;;;78.35;34.17;;;;;;;6.32;100.00;97757.72;4953691;28;20054;-86
2023/03/09 01:03:03;;;;;;;82.00;35.70;;;;;;;6.23;100.00;97739.97;4956210;28;20043;-84
2023/03/09 01:05:41;;;;;;;80.72;36.97;;;;;;;6.42;100.00;97761.38;4944357;28;20242;-88
2023/03/09 01:08:09;;;;;;;80.38;35.00;;;;;;;6.44;100.00;97758.63;4956316;28;20054;-87
2023/03/09 01:10:41;;;;;;;68.75;33.67;;;;;;;6.41;100.00;97751.81;4945729;29;20043;-87
2023/03/09 01:13:10;;;;;;;75.45;34.38;;;;;;;6.47;100.00;97751.34;4942457;29;20094;-87
2023/03/09 01:15:40;;;;;;;81.13;34.78;;;;;;;6.58;100.00;97766.38;4948133;29;20039;-88
2023/03/09 01:18:11;;;;;;;76.85;32.15;;;;;;;6.54;100.00;97755.22;4933604;28;20054;-88
2023/03/09 01:20:39;;;;;;;81.45;34.47;;;;;;;6.66;100.00;97764.00;4965401;28;20047;-88
2023/03/09 01:23:09;;;;;;;82.10;34.42;;;;;;;6.77;100.00;97774.56;4966771;28;20055;-88
2023/03/09 01:25:38;;;;;;;93.60;34.92;;;;;;;6.85;100.00;97761.72;4928583;29;20047;-87
2023/03/09 01:28:05;;;;;;;80.40;33.92;;;;;;;7.02;100.00;97787.63;4945137;29;20167;-88
2023/03/09 01:30:35;;;;;;;79.65;35.00;;;;;;;7.06;100.00;97772.44;4961476;28;20138;-88
2023/03/09 01:33:05;;;;;;;93.95;36.90;;;;;;;7.18;100.00;97766.25;4955876;28;20047;-88
2023/03/09 01:35:32;;;;;;;83.25;33.97;;;;;;;7.24;100.00;97762.34;4942809;29;20110;-87
2023/03/09 01:37:59;;;;;;;85.05;32.97;;;;;;;7.11;100.00;97741.34;4958588;28;20563;-88
2023/03/09 01:40:33;;;;;;;83.68;32.50;;;;;;;7.14;100.00;97740.28;4945166;29;20054;-88
2023/03/09 01:43:39;;;;;;;78.10;32.80;;;;;;;7.30;100.00;97770.59;4966347;28;20054;-88
2023/03/09 01:46:27;;;;;;;64.72;31.00;;;;;;;7.28;100.00;97761.13;4960235;28;20039;-86
2023/03/09 01:49:05;;;;;;;70.45;29.67;;;;;;;7.47;100.00;97784.28;4960850;28;21445;-87
2023/03/09 01:52:04;;;;;;;54.90;24.67;;;;;;;7.59;100.00;97788.59;4964058;28;20059;-86
2023/03/09 01:54:36;;;;;;;50.58;23.67;;;;;;;7.66;100.00;97792.47;4954880;29;20099;-87
2023/03/09 01:58:12;;;;;;;45.35;22.42;;;;;;;7.71;100.00;97803.50;4957851;28;20491;-88
2023/03/09 02:00:45;;;;;;;47.90;20.98;;;;;;;7.77;100.00;97805.66;4961703;28;20062;-87
2023/03/09 02:03:21;;;;;;;43.35;21.92;;;;;;;7.67;100.00;97789.72;4944880;29;20051;-87
2023/03/09 02:06:11;;;;;;;53.33;23.90;;;;;;;7.72;100.00;97786.72;4941874;28;20075;-88
2023/03/09 02:08:48;;;;;;;49.25;21.90;;;;;;;7.74;100.00;97785.63;4941468;29;20081;-89
2023/03/09 02:11:15;;;;;;;52.72;22.88;;;;;;;7.71;100.00;97788.50;4935671;29;20047;-89
2023/03/09 02:13:53;;;;;;;61.22;23.13;;;;;;;7.70;100.00;97784.22;4959991;28;20119;-89
2023/03/09 02:16:21;;;;;;;56.92;23.30;;;;;;;7.72;100.00;97792.81;4941988;29;20167;-89
2023/03/09 02:18:48;;;;;;;66.38;24.25;;;;;;;7.71;100.00;97799.03;4959013;28;20051;-88
2023/03/09 02:21:52;;;;;;;60.35;23.58;;;;;;;7.69;100.00;97800.16;4957386;28;20043;-86
2023/03/09 02:24:38;;;;;;;51.03;22.15;;;;;;;7.69;100.00;97811.53;4956854;28;20047;-89
2023/03/09 02:27:33;;;;;;;52.80;21.75;;;;;;;7.67;100.00;97817.84;4946008;29;20037;-88
2023/03/09 02:30:03;;;;;;;45.70;20.17;;;;;;;7.64;100.00;97816.28;4950706;29;20043;-84
2023/03/09 02:32:32;;;;;;;45.83;20.23;;;;;;;7.65;100.00;97835.56;4939740;29;20072;-87
2023/03/09 02:34:59;;;;;;;54.20;21.63;;;;;;;7.66;100.00;97842.50;4932045;28;20041;-87
2023/03/09 02:37:32;;;;;;;48.20;20.60;;;;;;;7.63;100.00;97842.75;4956772;29;20054;-86
2023/03/09 02:40:13;;;;;;;45.90;19.63;;;;;;;7.66;100.00;97846.00;4944519;29;20086;-86
2023/03/09 02:42:42;;;;;;;44.97;19.25;;;;;;;7.63;100.00;97853.28;4958452;28;20054;-87
2023/03/09 02:45:12;;;;;;;39.83;17.27;;;;;;;7.61;100.00;97853.38;4941698;29;20477;-87
2023/03/09 02:47:40;;;;;;;41.75;17.08;;;;;;;7.62;100.00;97848.97;4943682;29;20062;-87
2023/03/09 02:50:30;;;;;;;30.48;14.73;;;;;;;7.58;100.00;97863.31;4959441;28;20098;-87
2023/03/09 02:52:57;;;;;;;31.90;14.80;;;;;;;7.56;100.00;97868.69;4954732;29;20043;-87
2023/03/09 02:55:24;;;;;;;35.92;14.90;;;;;;;7.56;100.00;97876.59;4941966;29;20178;-89
2023/03/09 02:57:51;;;;;;;29.75;13.90;;;;;;;7.53;100.00;97871.56;4949340;28;20046;-88
2023/03/09 03:00:24;;;;;;;26.45;13.00;;;;;;;7.51;100.00;97875.25;4964352;28;20051;-87
2023/03/09 03:02:51;;;;;;;22.77;10.57;;;;;;;7.50;100.00;97870.94;4963242;28;20054;-87
2023/03/09 03:05:20;;;;;;;21.98;10.10;;;;;;;7.49;100.00;97882.44;4948803;29;20057;-87
2023/03/09 03:07:46;;;;;;;17.65;8.63;;;;;;;7.44;100.00;97885.41;4956975;28;20047;-87
2023/03/09 03:10:14;;;;;;;14.93;7.55;;;;;;;7.44;100.00;97889.81;4942741;29;20106;-89
2023/03/09 03:12:45;;;;;;;13.98;6.88;;;;;;;7.48;100.00;97901.81;4945089;28;20047;-88
2023/03/09 03:15:15;;;;;;;14.15;7.10;;;;;;;7.35;100.00;97900.09;4937489;28;20074;-87
2023/03/09 03:18:05;;;;;;;11.02;6.55;;;;;;;7.43;100.00;97912.69;4942049;28;20041;-88
2023/03/09 03:20:35;;;;;;;9.10;4.93;;;;;;;7.47;100.00;97918.56;4944035;29;20051;-89
2023/03/09 03:23:06;;;;;;;10.00;5.45;;;;;;;7.49;100.00;97932.47;4939513;28;20051;-89
2023/03/09 03:25:36;;;;;;;6.88;4.97;;;;;;;7.47;100.00;97922.03;4963374;28;20078;-88
2023/03/09 03:28:04;;;;;;;7.72;4.45;;;;;;;7.48;100.00;97923.72;4942472;29;20051;-89
2023/03/09 03:30:32;;;;;;;5.88;3.72;;;;;;;7.43;100.00;97927.63;4945094;29;20111;-86
2023/03/09 03:32:59;;;;;;;5.60;3.22;;;;;;;7.39;100.00;97919.16;4963432;28;20046;-88
2023/03/09 03:35:27;;;;;;;5.22;3.05;;;;;;;7.49;100.00;97938.56;4947670;29;20043;-87
2023/03/09 03:37:58;;;;;;;5.55;3.00;;;;;;;7.49;100.00;97938.56;4947181;29;20049;-88
2023/03/09 03:40:26;;;;;;;3.60;2.33;;;;;;;7.51;100.00;97949.00;4956627;28;20050;-88
2023/03/09 03:43:16;;;;;;;4.03;2.30;;;;;;;7.49;100.00;97938.56;4966020;28;20063;-89
2023/03/09 03:45:43;;;;;;;3.58;2.00;;;;;;;7.47;100.00;97944.91;4968960;28;20051;-88
2023/03/09 03:48:09;;;;;;;3.53;1.73;;;;;;;7.58;100.00;97973.91;4958672;28;20047;-87
2023/03/09 03:50:38;;;;;;;4.95;1.75;;;;;;;7.63;100.00;97977.06;4942310;29;20094;-88
2023/03/09 03:53:05;;;;;;;2.78;1.60;;;;;;;7.60;100.00;97979.91;4942190;28;20043;-86
2023/03/09 03:55:36;;;;;;;3.25;1.50;;;;;;;7.60;100.00;98003.63;4955129;29;20054;-88
2023/03/09 03:58:03;;;;;;;2.05;0.82;;;;;;;7.57;100.00;98014.38;4966314;29;20074;-85
2023/03/09 04:00:30;;;;;;;1.80;1.08;;;;;;;7.56;100.00;98012.69;4951258;29;20055;-85
2023/03/09 04:02:59;;;;;;;3.88;1.10;;;;;;;7.57;100.00;98017.84;4946420;29;20075;-85
2023/03/09 04:05:26;;;;;;;2.90;0.93;;;;;;;7.58;100.00;98029.22;4932439;29;20107;-87
2023/03/09 04:07:52;;;;;;;0.80;0.70;;;;;;;7.63;100.00;98035.84;4952721;29;20071;-88
2023/03/09 04:10:19;;;;;;;1.75;0.60;;;;;;;7.64;100.00;98039.31;4947504;29;20048;-88
2023/03/09 04:12:52;;;;;;;3.35;0.70;;;;;;;7.55;100.00;98024.19;4942532;29;20143;-88
2023/03/09 04:15:22;;;;;;;1.65;0.60;;;;;;;7.69;100.00;98056.50;4943395;29;20122;-89
2023/03/09 04:17:51;;;;;;;;;;;;;;;7.73;100.00;98059.72;4942318;29;20051;-89
2023/03/09 04:20:18;;;;;;;0.73;0.50;;;;;;;7.71;100.00;98054.56;4942252;29;19922;-87
2023/03/09 04:22:49;;;;;;;2.47;0.70;;;;;;;7.72;100.00;98060.66;4943794;29;20127;-87
2023/03/09 04:25:23;;;;;;;3.33;0.70;;;;;;;7.75;100.00;98060.44;4942349;29;20043;-88
2023/03/09 04:27:51;;;;;;;3.10;0.50;;;;;;;7.75;100.00;98076.25;4948110;29;20044;-89
2023/03/09 04:30:20;;;;;;;2.38;0.52;;;;;;;7.75;100.00;98090.28;4968937;28;20130;-89
2023/03/09 04:32:48;;;;;;;1.73;0.57;;;;;;;7.76;100.00;98101.66;4943880;29;20081;-87
2023/03/09 04:35:15;;;;;;;0.70;0.43;;;;;;;7.71;100.00;98099.34;4927985;29;20569;-90
2023/03/09 04:37:45;;;;;;;1.52;0.80;;;;;;;7.72;100.00;98105.44;4942208;29;20075;-89
2023/03/09 04:40:13;;;;;;;;;;;;;;;7.69;100.00;98103.06;4944752;28;20082;-89
2023/03/09 04:42:41;;;;;;;1.77;0.60;;;;;;;7.43;100.00;98075.09;4939036;29;20411;-88
2023/03/09 04:45:09;;;;;;;1.75;0.45;;;;;;;7.44;100.00;98089.94;4936966;29;20126;-86
2023/03/09 04:47:36;;;;;;;1.70;0.47;;;;;;;7.65;100.00;98123.50;4937848;29;20138;-89
2023/03/09 04:50:08;;;;;;;0.80;0.40;;;;;;;7.70;100.00;98131.09;4945245;29;20051;-88
2023/03/09 04:52:36;;;;;;;1.83;0.50;;;;;;;7.60;100.00;98120.34;4940366;29;20047;-89
2023/03/09 04:55:05;;;;;;;0.63;0.27;;;;;;;7.76;100.00;98143.81;4942826;29;20071;-87
2023/03/09 04:57:35;;;;;;;1.65;0.60;;;;;;;7.79;100.00;98148.03;4931122;29;20483;-89
2023/03/09 05:00:10;;;;;;;1.85;0.63;;;;;;;7.79;100.00;98146.22;4962278;28;20350;-86
2023/03/09 05:02:39;;;;;;;2.67;0.60;;;;;;;7.74;100.00;98137.81;4974858;28;20062;-88
2023/03/09 05:05:21;;;;;;;2.00;0.70;;;;;;;7.83;100.00;98152.97;4980662;28;20046;-86
2023/03/09 05:07:49;;;;;;;2.45;0.35;;;;;;;7.84;100.00;98165.19;4969696;28;20039;-89
2023/03/09 05:10:16;;;;;;;1.45;0.60;;;;;;;7.84;100.00;98170.47;4947716;29;20058;-88
2023/03/09 05:12:45;;;;;;;1.33;0.63;;;;;;;7.86;100.00;98171.19;4951082;28;20111;-88
2023/03/09 05:15:17;;;;;;;1.50;0.60;;;;;;;7.84;100.00;98173.09;4948542;29;20047;-89
2023/03/09 05:17:45;;;;;;;2.78;0.60;;;;;;;7.82;100.00;98172.38;4942703;28;20043;-88
2023/03/09 05:20:14;;;;;;;1.67;0.70;;;;;;;7.86;100.00;98179.09;4939821;29;20059;-89
2023/03/09 05:22:41;;;;;;;1.15;0.70;;;;;;;7.80;100.00;98178.69;4945163;28;20063;-88
2023/03/09 05:25:11;;;;;;;6.07;0.90;;;;;;;7.70;100.00;98167.97;4961177;28;20142;-88
2023/03/09 05:27:40;;;;;;;3.75;1.05;;;;;;;7.79;100.00;98188.38;4960598;28;20050;-87
2023/03/09 05:30:10;;;;;;;4.18;0.85;;;;;;;7.82;100.00;98198.72;4958507;28;20484;-86
2023/03/09 05:32:38;;;;;;;;;;;;;;;7.84;100.00;98204.72;4940173;29;20047;-86
2023/03/09 05:35:07;;;;;;;2.78;1.00;;;;;;;7.85;100.00;98209.03;4953734;28;20013;-87
2023/03/09 05:37:36;;;;;;;1.88;0.93;;;;;;;7.83;100.00;98200.41;4959929;29;20134;-87
2023/03/09 05:40:08;;;;;;;3.28;1.00;;;;;;;7.91;100.00;98215.66;4964066;28;20050;-87
2023/03/09 05:43:02;;;;;;;2.55;0.80;;;;;;;7.94;100.00;98218.06;4964342;28;20103;-87
2023/03/09 05:45:30;;;;;;;4.05;0.80;;;;;;;7.97;100.00;98221.34;4948797;29;20043;-85
2023/03/09 05:47:56;;;;;;;3.05;1.02;;;;;;;8.02;100.00;98221.88;4950248;29;20055;-86
2023/03/09 05:50:24;;;;;;;3.67;1.05;;;;;;;7.98;100.00;98215.13;4950093;28;20047;-86
2023/03/09 05:52:50;;;;;;;4.28;1.02;;;;;;;8.01;100.00;98236.00;4944473;28;20118;-88
2023/03/09 05:55:18;;;;;;;3.05;1.00;;;;;;;8.12;100.00;98239.66;4947242;29;20402;-86
2023/03/09 05:57:45;;;;;;;4.43;1.17;;;;;;;8.07;100.00;98232.06;4955417;28;20492;-88
2023/03/09 06:00:12;;;;;;;3.40;0.90;;;;;;;7.99;100.00;98226.50;4952476;29;20059;-87
2023/03/09 06:02:39;;;;;;;3.92;1.10;;;;;;;8.01;100.00;98225.44;4971451;28;20072;-86
2023/03/09 06:05:08;;;;;;;4.85;1.08;;;;;;;8.03;100.00;98233.22;4949119;29;20138;-86
2023/03/09 06:07:43;;;;;;;3.72;1.35;;;;;;;8.19;100.00;98261.97;4949004;29;20052;-87
2023/03/09 06:10:11;;;;;;;1.60;1.15;;;;;;;8.20;100.00;98268.94;4949772;29;20070;-89
2023/03/09 06:12:39;;;;;;;5.00;1.20;;;;;;;8.20;100.00;98261.03;4945519;29;20047;-87
2023/03/09 06:15:09;;;;;;;6.90;1.45;;;;;;;8.05;100.00;98241.88;4960764;28;20042;-86
2023/03/09 06:17:49;;;;;;;5.20;1.52;;;;;;;8.18;100.00;98268.22;4949158;29;20075;-87
2023/03/09 06:20:40;;;;;;;4.13;1.27;;;;;;;8.16;100.00;98272.75;4946971;29;20043;-88
2023/03/09 06:23:35;;;;;;;9.70;2.08;;;;;;;8.22;100.00;98286.34;4940387;29;20046;-88
2023/03/09 06:26:12;;;;;;;6.65;1.55;;;;;;;8.13;100.00;98283.53;4939650;29;20050;-89
2023/03/09 06:28:46;;;;;;;8.45;1.33;;;;;;;8.16;100.00;98278.03;4961387;28;20036;-88
2023/03/09 06:31:18;;;;;;;6.32;1.60;;;;;;;8.21;100.00;98297.81;4938010;29;20059;-87
2023/03/09 06:33:56;;;;;;;4.95;1.98;;;;;;;8.17;100.00;98309.56;4941974;29;20076;-88
2023/03/09 06:36:32;;;;;;;8.40;1.35;;;;;;;8.09;100.00;98296.91;4941084;29;20075;-90
2023/03/09 06:39:19;;;;;;;7.60;1.42;;;;;;;8.11;100.00;98288.91;4940309;29;20441;-87
2023/03/09 06:42:01;;;;;;;4.97;1.50;;;;;;;8.19;100.00;98301.53;4938294;29;20051;-87
2023/03/09 06:44:58;;;;;;;7.07;1.58;;;;;;;8.28;100.00;98312.28;4942956;29;20055;-88
2023/03/09 06:47:39;;;;;;;9.50;2.17;;;;;;;8.25;100.00;98312.50;4951792;28;20048;-88
2023/03/09 06:50:06;;;;;;;6.18;1.73;;;;;;;8.24;100.00;98315.22;4959743;28;20082;-88
2023/03/09 06:52:45;;;;;;;8.18;1.63;;;;;;;8.21;100.00;98326.00;4938738;29;20504;-89
2023/03/09 06:55:20;;;;;;;12.05;1.85;;;;;;;8.20;100.00;98321.66;4941382;29;20055;-89
2023/03/09 06:58:10;;;;;;;13.57;2.30;;;;;;;8.25;100.00;98330.09;4941885;29;20051;-89
2023/03/09 07:00:50;;;;;;;14.00;2.20;;;;;;;8.25;100.00;98338.84;4952141;28;20408;-89
2023/03/09 07:03:41;;;;;;;7.93;1.98;;;;;;;8.24;100.00;98337.16;4946309;28;20155;-88
2023/03/09 07:06:42;;;;;;;15.65;2.70;;;;;;;8.28;100.00;98345.72;4946790;29;20583;-87
2023/03/09 07:09:23;;;;;;;9.50;2.10;;;;;;;8.26;100.00;98352.88;4938803;29;20043;-88
2023/03/09 07:12:06;;;;;;;11.13;2.15;;;;;;;8.31;100.00;98354.25;4957362;28;20067;-88
2023/03/09 07:14:38;;;;;;;10.70;2.67;;;;;;;8.32;100.00;98360.41;4967461;28;20054;-88
2023/03/09 07:17:12;;;;;;;10.48;1.88;;;;;;;8.27;100.00;98357.22;4940950;29;20048;-89
2023/03/09 07:19:57;;;;;;;11.82;2.58;;;;;;;8.32;100.00;98370.97;4944344;29;20044;-88
2023/03/09 07:23:03;;;;;;;13.45;2.75;;;;;;;8.26;100.00;98366.06;4942844;29;20052;-89
2023/03/09 07:26:07;;;;;;;13.82;2.78;;;;;;;8.28;100.00;98374.72;4938437;29;20035;-88
2023/03/09 07:28:36;;;;;;;12.23;2.72;;;;;;;8.42;100.00;98387.81;4951063;28;20052;-90
2023/03/09 07:31:13;;;;;;;9.57;2.53;;;;;;;8.27;100.00;98367.75;4936760;29;20074;-88
2023/03/09 07:33:40;;;;;;;8.52;2.60;;;;;;;8.30;100.00;98373.66;4933894;29;20147;-88
2023/03/09 07:36:10;;;;;;;16.23;3.00;;;;;;;8.50;100.00;98401.28;4939103;29;20047;-88
2023/03/09 07:38:48;;;;;;;13.07;3.25;;;;;;;8.56;100.00;98403.50;4939008;29;20040;-90
2023/03/09 07:41:18;;;;;;;11.27;3.30;;;;;;;8.59;100.00;98400.66;4957841;28;20039;-90
2023/03/09 07:44:24;;;;;;;11.25;3.75;;;;;;;8.59;100.00;98397.19;4936772;29;20099;-88
2023/03/09 07:47:08;;;;;;;14.52;3.83;;;;;;;8.44;100.00;98385.91;4942284;28;20070;-89
2023/03/09 07:49:50;;;;;;;10.82;3.80;;;;;;;8.70;100.00;98419.22;4938863;29;20530;-89
2023/03/09 07:54:21;;;;;;;9.73;4.10;;;;;;;8.79;100.00;98421.22;5074889;27;24475;-90
2023/03/09 07:57:04;;;;;;;11.40;4.95;;;;;;;8.69;100.00;98419.31;5045200;28;20044;-90
2023/03/09 07:59:36;;;;;;;7.28;3.63;;;;;;;8.75;100.00;98424.19;5047746;28;20045;-90
2023/03/09 08:02:09;;;;;;;14.38;4.40;;;;;;;8.74;100.00;98417.22;5055548;28;20041;-90
2023/03/09 08:04:41;;;;;;;12.07;4.20;;;;;;;8.71;100.00;98420.91;5083118;28;20041;-89
2023/03/09 08:07:25;;;;;;;12.77;4.38;;;;;;;8.85;100.00;98448.94;5057708;28;20049;-90
2023/03/09 08:10:11;;;;;;;14.70;5.60;;;;;;;8.70;100.00;98419.22;5082602;28;20037;-87
2023/03/09 08:12:47;;;;;;;14.85;6.10;;;;;;;8.81;100.00;98446.66;5078754;28;20784;-90
2023/03/09 08:15:22;;;;;;;12.68;6.60;;;;;;;8.75;100.00;98443.50;5052052;28;20047;-88
2023/03/09 08:18:04;;;;;;;9.30;4.50;;;;;;;8.67;100.00;98429.13;5051583;28;20068;-89
2023/03/09 08:20:36;;;;;;;13.00;4.78;;;;;;;8.82;100.00;98448.31;5057898;28;20429;-89
2023/03/09 08:23:10;;;;;;;14.35;5.07;;;;;;;8.86;100.00;98457.72;5054802;28;20060;-88
2023/03/09 08:25:41;;;;;;;8.40;5.03;;;;;;;8.81;100.00;98457.22;5052511;28;20041;-88
2023/03/09 08:28:22;;;;;;;12.55;4.68;;;;;;;8.94;100.00;98473.88;5050507;28;20064;-89
2023/03/09 08:31:02;;;;;;;10.30;4.38;;;;;;;8.93;100.00;98482.75;5052396;28;20081;-87
2023/03/09 08:33:33;;;;;;;8.35;3.58;;;;;;;8.97;100.00;98484.22;5064380;28;20121;-89
2023/03/09 08:36:19;;;;;;;6.97;2.83;;;;;;;9.04;100.00;98485.44;5049233;28;20046;-89
2023/03/09 08:38:50;;;;;;;5.60;2.78;;;;;;;9.05;100.00;98492.41;5039325;28;20064;-89
2023/03/09 08:41:45;;;;;;;8.25;3.10;;;;;;;9.09;100.00;98491.25;5063136;28;20068;-89
2023/03/09 08:44:15;;;;;;;9.85;3.70;;;;;;;8.92;100.00;98467.84;5072529;28;20045;-87
2023/03/09 08:47:08;;;;;;;5.75;2.90;;;;;;;8.90;100.00;98470.59;5084780;28;20049;-88
2023/03/09 08:49:41;;;;;;;6.70;2.50;;;;;;;8.95;100.00;98476.41;5052860;28;20356;-91
2023/03/09 08:52:15;;;;;;;10.25;3.08;;;;;;;9.21;100.00;98514.16;5073226;28;20029;-87
2023/03/09 08:54:53;;;;;;;6.93;2.22;;;;;;;9.23;100.00;98517.53;5058168;28;20049;-92
2023/03/09 08:58:10;;;;;;;6.22;1.95;;;;;;;9.27;100.00;98532.22;5049160;28;20041;-91
2023/03/09 09:00:51;;;;;;;15.95;3.05;;;;;;;9.25;100.00;98517.41;5055939;28;20037;-90
2023/03/09 09:03:33;;;;;;;7.93;2.30;;;;;;;9.29;100.00;98532.06;5037009;28;20121;-89
2023/03/09 09:06:26;;;;;;;5.28;2.55;;;;;;;9.22;100.00;98536.97;5040371;28;20150;-90
2023/03/09 09:08:57;;;;;;;7.65;2.45;;;;;;;9.10;100.00;98522.00;5039323;28;20342;-89
2023/03/09 09:11:27;;;;;;;8.53;2.17;;;;;;;9.20;100.00;98546.78;5025956;28;20038;-90
2023/03/09 09:13:56;;;;;;;9.38;2.67;;;;;;;9.24;100.00;98550.06;5062317;28;20530;-89
2023/03/09 09:17:00;;;;;;;3.30;1.92;;;;;;;9.12;100.00;98531.50;5067038;28;20109;-89
2023/03/09 09:19:48;;;;;;;7.43;2.30;;;;;;;9.31;100.00;98551.31;5061410;28;20045;-90
2023/03/09 09:22:29;;;;;;;14.57;3.50;;;;;;;9.34;100.00;98537.88;5035943;28;20088;-91
2023/03/09 09:25:24;;;;;;;12.93;2.83;;;;;;;9.45;100.00;98559.94;5043660;28;20056;-92
2023/03/09 09:28:11;;;;;;;3.78;1.80;;;;;;;9.21;100.00;98513.31;5043904;28;20198;-90
2023/03/09 09:31:03;;;;;;;5.03;1.70;;;;;;;9.39;100.00;98543.69;5050504;28;20040;-91
2023/03/09 09:33:52;;;;;;;8.43;1.92;;;;;;;9.70;100.00;98560.81;5062862;28;20026;-92
2023/03/09 09:36:57;;;;;;;8.93;1.97;;;;;;;9.91;100.00;98550.50;5053052;28;20041;-92
2023/03/09 09:39:44;;;;;;;6.80;1.60;;;;;;;9.97;100.00;98577.31;5050547;28;20044;-91
2023/03/09 09:42:32;;;;;;;7.07;1.42;;;;;;;9.89;100.00;98579.69;5048780;28;20105;-91
2023/03/09 09:45:04;;;;;;;3.53;1.23;;;;;;;9.78;100.00;98575.16;5079423;28;20045;-90
2023/03/09 09:47:38;;;;;;;3.88;1.55;;;;;;;9.84;100.00;98593.22;5071452;28;20087;-90
2023/03/09 09:50:14;;;;;;;5.50;1.60;;;;;;;9.79;100.00;98605.94;5071792;28;20052;-89
2023/03/09 09:53:27;;;;;;;4.22;1.25;;;;;;;9.80;100.00;98602.31;5037161;28;20087;-90
2023/03/09 09:56:13;;;;;;;9.75;1.85;;;;;;;9.80;100.00;98610.25;5040996;28;20055;-89
2023/03/09 09:59:09;;;;;;;4.90;1.75;;;;;;;9.84;100.00;98608.25;5034352;28;20041;-92
2023/03/09 10:02:08;;;;;;;4.85;1.73;;;;;;;9.41;100.00;98525.94;5041918;28;20085;-91
2023/03/09 10:05:14;;;;;;;6.25;1.48;;;;;;;9.91;100.00;98611.31;5032667;28;20038;-91
2023/03/09 10:07:46;;;;;;;5.53;1.13;;;;;;;9.89;100.00;98607.94;5051942;28;20059;-90
2023/03/09 10:10:33;;;;;;;6.03;1.40;;;;;;;9.87;100.00;98613.31;5064533;28;20050;-89
2023/03/09 10:13:32;;;;;;;4.25;1.30;;;;;;;9.82;100.00;98626.00;5052093;28;20140;-90
2023/03/09 10:16:11;;;;;;;;;;;;;;;9.84;100.00;98624.94;5046001;28;20117;-90
2023/03/09 10:18:47;;;;;;;6.93;1.30;;;;;;;9.77;100.00;98604.34;5050899;28;19920;-89
2023/03/09 10:22:05;;;;;;;10.07;2.00;;;;;;;9.93;100.00;98625.22;5054337;28;20055;-87
2023/03/09 10:24:50;;;;;;;7.20;1.40;;;;;;;9.96;100.00;98627.66;5050253;28;20054;-89
2023/03/09 10:27:40;;;;;;;6.60;1.48;;;;;;;9.83;100.00;98607.41;5043333;28;20033;-91
2023/03/09 10:31:12;;;;;;;4.50;1.10;;;;;;;10.00;100.00;98645.84;5047522;28;20058;-90
2023/03/09 10:33:52;;;;;;;7.45;1.52;;;;;;;10.02;100.00;98638.66;5056340;28;20048;-91
2023/03/09 10:36:31;;;;;;;6.75;1.33;;;;;;;10.00;100.00;98610.63;5043595;28;20048;-90
2023/03/09 10:39:14;;;;;;;4.88;1.42;;;;;;;10.20;100.00;98639.16;5043610;28;20088;-90
2023/03/09 10:41:49;;;;;;;7.07;1.48;;;;;;;10.24;100.00;98643.22;5062119;28;20136;-91
2023/03/09 10:44:20;;;;;;;;;;;;;;;10.25;100.00;98662.59;5049522;28;20044;-89
2023/03/09 10:46:58;;;;;;;6.25;1.45;;;;;;;10.19;100.00;98659.47;5069751;28;19960;-91
2023/03/09 10:49:32;;;;;;;11.43;1.73;;;;;;;10.25;100.00;98666.09;5045063;28;20044;-90
2023/03/09 10:52:11;;;;;;;6.38;1.55;;;;;;;10.24;100.00;98663.53;5036326;28;20053;-90
2023/03/09 10:54:57;;;;;;;12.40;1.98;;;;;;;10.38;100.00;98676.63;5046162;28;20066;-90
2023/03/09 10:57:54;;;;;;;8.82;1.98;;;;;;;10.30;100.00;98657.81;5059063;28;20037;-90
2023/03/09 11:00:56;;;;;;;10.23;1.95;;;;;;;10.43;100.00;98669.19;5030052;28;20091;-91
2023/03/09 11:03:41;;;;;;;7.38;2.13;;;;;;;10.46;100.00;98671.63;5038319;28;20041;-90
2023/03/09 11:06:32;;;;;;;8.70;1.70;;;;;;;10.42;100.00;98686.00;5052817;28;20105;-89
2023/03/09 11:09:13;;;;;;;6.68;1.65;;;;;;;10.43;100.00;98674.47;5038502;28;20175;-92
2023/03/09 11:11:47;;;;;;;10.27;1.80;;;;;;;10.52;100.00;98687.91;5046247;28;20114;-90
2023/03/09 11:14:23;;;;;;;9.13;2.65;;;;;;;10.59;100.00;98685.63;5049972;28;20056;-90
2023/03/09 11:16:57;;;;;;;7.60;1.50;;;;;;;10.70;100.00;98684.84;5079978;28;20056;-89
2023/03/09 11:19:36;;;;;;;;;;;;;;;10.78;100.00;98679.81;5043125;28;20029;-89
2023/03/09 11:22:23;;;;;;;6.93;1.63;;;;;;;10.61;100.00;98656.41;5044011;28;19936;-89
2023/03/09 11:25:38;;;;;;;6.53;1.60;;;;;;;10.57;100.00;98655.78;5069700;28;20076;-92
2023/03/09 11:29:01;;;;;;;7.10;1.88;;;;;;;10.83;100.00;98694.41;5036257;28;20049;-89
2023/03/09 11:31:52;;;;;;;8.07;1.60;;;;;;;10.82;100.00;98703.31;5036984;28;20044;-90
2023/03/09 11:35:03;;;;;;;9.48;1.40;;;;;;;10.64;100.00;98690.59;5048942;28;20045;-91
2023/03/09 11:38:15;;;;;;;6.15;1.27;;;;;;;10.77;100.00;98705.44;5051674;28;20097;-90
2023/03/09 11:41:19;;;;;;;9.63;1.40;;;;;;;10.82;100.00;98695.34;5027857;28;20107;-90
2023/03/09 11:43:55;;;;;;;9.05;1.42;;;;;;;10.72;100.00;98672.31;5055942;28;20041;-90
2023/03/09 11:46:58;;;;;;;4.43;0.90;;;;;;;10.65;100.00;98648.13;5033748;28;20072;-90
2023/03/09 11:50:26;;;;;;;5.88;1.42;;;;;;;10.82;100.00;98684.75;5041706;28;20045;-91
2023/03/09 11:53:50;;;;;;;7.63;1.40;;;;;;;11.01;100.00;98707.22;5038844;28;20057;-90
2023/03/09 11:56:55;;;;;;;5.00;1.35;;;;;;;11.00;100.00;98709.03;4978335;28;21250;-93
2023/03/09 11:59:59;;;;;;;5.78;1.20;;;;;;;11.04;100.00;98706.97;4964674;28;20081;-88
2023/03/09 12:03:08;;;;;;;3.47;1.10;;;;;;;11.11;100.00;98708.19;4968762;28;20093;-90
2023/03/09 12:05:56;;;;;;;7.05;1.00;;;;;;;10.81;100.00;98638.06;5052837;28;20025;-91
2023/03/09 12:11:33;;;;;;;3.22;1.00;;;;;;;10.98;100.00;98686.25;5028717;28;20060;-89
2023/03/09 12:14:33;;;;;;;3.50;1.40;;;;;;;11.11;100.00;98713.50;5023593;28;20052;-89
2023/03/09 12:17:09;;;;;;;7.28;1.80;;;;;;;11.06;100.00;98694.44;5006525;28;20045;-90
2023/03/09 12:20:01;;;;;;;4.00;1.40;;;;;;;10.77;100.00;98663.06;5025062;28;20100;-91
2023/03/09 12:22:53;;;;;;;6.78;1.55;;;;;;;10.66;100.00;98641.88;5024641;28;20041;-89
2023/03/09 12:25:33;;;;;;;1.95;0.95;;;;;;;10.76;100.00;98661.38;5007236;28;20042;-90